sensor_id;sensor_type;location;lat;lon;timestamp;P1;durP1;ratioP1;P2;durP2;ratioP2
52104;SDS011;38103;42.776;23.112;2023-05-21T00:02:16;16.38;;;8.63;;
52104;SDS011;38103;42.776;23.112;2023-05-21T00:04:45;14.05;;;7.82;;
52104;SDS011;38103;42.776;23.112;2023-05-21T00:07:11;14.52;;;7.47;;
52104;SDS011;38103;42.776;23.112;2023-05-21T00:09:37;16.65;;;8.00;;
52104;SDS011;38103;42.776;23.112;2023-05-21T00:12:07;23.05;;;8.45;;
52104;SDS011;38103;42.776;23.112;2023-05-21T00:14:33;18.67;;;8.32;;
52104;SDS011;38103;42.776;23.112;2023-05-21T00:16:59;15.45;;;8.60;;
52104;SDS011;38103;42.776;23.112;2023-05-21T00:19:24;16.48;;;7.82;;
52104;SDS011;38103;42.776;23.112;2023-05-21T00:21:51;15.98;;;7.80;;
52104;SDS011;38103;42.776;23.112;2023-05-21T00:24:16;14.85;;;7.97;;
52104;SDS011;38103;42.776;23.112;2023-05-21T00:26:42;14.52;;;7.78;;
52104;SDS011;38103;42.776;23.112;2023-05-21T00:29:07;12.50;;;6.80;;
52104;SDS011;38103;42.776;23.112;2023-05-21T00:31:32;17.08;;;8.18;;
52104;SDS011;38103;42.776;23.112;2023-05-21T00:33:58;13.82;;;7.78;;
52104;SDS011;38103;42.776;23.112;2023-05-21T00:36:23;16.45;;;7.57;;
52104;SDS011;38103;42.776;23.112;2023-05-21T00:38:49;17.08;;;8.18;;
52104;SDS011;38103;42.776;23.112;2023-05-21T00:41:15;14.73;;;7.90;;
52104;SDS011;38103;42.776;23.112;2023-05-21T00:43:41;15.02;;;7.68;;
52104;SDS011;38103;42.776;23.112;2023-05-21T00:46:09;15.38;;;8.20;;
52104;SDS011;38103;42.776;23.112;2023-05-21T00:48:37;17.55;;;8.35;;
52104;SDS011;38103;42.776;23.112;2023-05-21T00:51:03;14.95;;;8.00;;
52104;SDS011;38103;42.776;23.112;2023-05-21T00:53:30;15.95;;;8.32;;
52104;SDS011;38103;42.776;23.112;2023-05-21T00:55:59;21.80;;;8.52;;
52104;SDS011;38103;42.776;23.112;2023-05-21T00:58:25;16.13;;;8.93;;
52104;SDS011;38103;42.776;23.112;2023-05-21T01:00:51;17.92;;;8.77;;
52104;SDS011;38103;42.776;23.112;2023-05-21T01:03:19;16.98;;;8.63;;
52104;SDS011;38103;42.776;23.112;2023-05-21T01:05:47;15.70;;;8.50;;
52104;SDS011;38103;42.776;23.112;2023-05-21T01:08:18;15.32;;;8.15;;
52104;SDS011;38103;42.776;23.112;2023-05-21T01:10:46;15.85;;;8.00;;
52104;SDS011;38103;42.776;23.112;2023-05-21T01:13:14;17.30;;;8.40;;
52104;SDS011;38103;42.776;23.112;2023-05-21T01:15:42;16.35;;;8.60;;
52104;SDS011;38103;42.776;23.112;2023-05-21T01:18:09;15.43;;;8.88;;
52104;SDS011;38103;42.776;23.112;2023-05-21T01:20:35;15.48;;;8.88;;
52104;SDS011;38103;42.776;23.112;2023-05-21T01:23:01;17.85;;;8.85;;
52104;SDS011;38103;42.776;23.112;2023-05-21T01:25:27;16.20;;;9.32;;
52104;SDS011;38103;42.776;23.112;2023-05-21T01:27:52;18.15;;;9.05;;
52104;SDS011;38103;42.776;23.112;2023-05-21T01:30:18;16.92;;;9.25;;
52104;SDS011;38103;42.776;23.112;2023-05-21T01:35:20;17.17;;;9.25;;
52104;SDS011;38103;42.776;23.112;2023-05-21T01:40:35;17.00;;;9.38;;
52104;SDS011;38103;42.776;23.112;2023-05-21T01:43:06;16.50;;;9.13;;
52104;SDS011;38103;42.776;23.112;2023-05-21T01:45:33;18.58;;;10.13;;
52104;SDS011;38103;42.776;23.112;2023-05-21T01:48:02;18.55;;;9.07;;
52104;SDS011;38103;42.776;23.112;2023-05-21T01:50:29;16.48;;;8.77;;
52104;SDS011;38103;42.776;23.112;2023-05-21T01:52:56;17.45;;;9.82;;
52104;SDS011;38103;42.776;23.112;2023-05-21T01:55:22;17.33;;;9.55;;
52104;SDS011;38103;42.776;23.112;2023-05-21T01:57:52;21.30;;;9.88;;
52104;SDS011;38103;42.776;23.112;2023-05-21T02:00:22;16.48;;;9.45;;
52104;SDS011;38103;42.776;23.112;2023-05-21T02:02:49;16.50;;;9.02;;
52104;SDS011;38103;42.776;23.112;2023-05-21T02:05:15;16.42;;;9.48;;
52104;SDS011;38103;42.776;23.112;2023-05-21T02:07:41;17.42;;;9.32;;
52104;SDS011;38103;42.776;23.112;2023-05-21T02:10:08;17.42;;;8.95;;
52104;SDS011;38103;42.776;23.112;2023-05-21T02:12:34;17.05;;;9.00;;
52104;SDS011;38103;42.776;23.112;2023-05-21T02:14:59;15.75;;;8.88;;
52104;SDS011;38103;42.776;23.112;2023-05-21T02:17:25;19.55;;;9.27;;
52104;SDS011;38103;42.776;23.112;2023-05-21T02:19:50;16.73;;;9.52;;
52104;SDS011;38103;42.776;23.112;2023-05-21T02:22:16;15.90;;;9.85;;
52104;SDS011;38103;42.776;23.112;2023-05-21T02:24:41;17.15;;;9.48;;
52104;SDS011;38103;42.776;23.112;2023-05-21T02:27:07;16.17;;;10.05;;
52104;SDS011;38103;42.776;23.112;2023-05-21T02:29:34;18.58;;;10.10;;
52104;SDS011;38103;42.776;23.112;2023-05-21T02:32:02;18.27;;;10.25;;
52104;SDS011;38103;42.776;23.112;2023-05-21T02:34:28;18.17;;;10.70;;
52104;SDS011;38103;42.776;23.112;2023-05-21T02:36:57;17.73;;;9.85;;
52104;SDS011;38103;42.776;23.112;2023-05-21T02:39:22;19.83;;;10.52;;
52104;SDS011;38103;42.776;23.112;2023-05-21T02:41:48;19.17;;;9.88;;
52104;SDS011;38103;42.776;23.112;2023-05-21T02:44:13;17.80;;;9.98;;
52104;SDS011;38103;42.776;23.112;2023-05-21T02:46:39;20.25;;;10.48;;
52104;SDS011;38103;42.776;23.112;2023-05-21T02:49:04;19.65;;;9.77;;
52104;SDS011;38103;42.776;23.112;2023-05-21T02:51:30;16.83;;;10.30;;
52104;SDS011;38103;42.776;23.112;2023-05-21T02:53:55;19.90;;;9.77;;
52104;SDS011;38103;42.776;23.112;2023-05-21T02:56:21;16.50;;;10.40;;
52104;SDS011;38103;42.776;23.112;2023-05-21T02:58:47;18.90;;;10.45;;
52104;SDS011;38103;42.776;23.112;2023-05-21T03:01:12;20.33;;;11.52;;
52104;SDS011;38103;42.776;23.112;2023-05-21T03:03:38;19.33;;;10.98;;
52104;SDS011;38103;42.776;23.112;2023-05-21T03:06:03;19.88;;;10.70;;
52104;SDS011;38103;42.776;23.112;2023-05-21T03:08:28;18.45;;;9.85;;
52104;SDS011;38103;42.776;23.112;2023-05-21T03:10:54;18.80;;;9.93;;
52104;SDS011;38103;42.776;23.112;2023-05-21T03:13:19;18.25;;;10.48;;
52104;SDS011;38103;42.776;23.112;2023-05-21T03:15:45;18.85;;;10.05;;
52104;SDS011;38103;42.776;23.112;2023-05-21T03:18:10;19.85;;;10.90;;
52104;SDS011;38103;42.776;23.112;2023-05-21T03:20:37;18.40;;;11.38;;
52104;SDS011;38103;42.776;23.112;2023-05-21T03:23:07;20.40;;;10.68;;
52104;SDS011;38103;42.776;23.112;2023-05-21T03:25:33;18.92;;;11.23;;
52104;SDS011;38103;42.776;23.112;2023-05-21T03:28:00;20.85;;;10.80;;
52104;SDS011;38103;42.776;23.112;2023-05-21T03:30:26;22.33;;;11.43;;
52104;SDS011;38103;42.776;23.112;2023-05-21T03:32:51;19.70;;;11.25;;
52104;SDS011;38103;42.776;23.112;2023-05-21T03:35:17;21.35;;;11.48;;
52104;SDS011;38103;42.776;23.112;2023-05-21T03:37:42;23.15;;;12.25;;
52104;SDS011;38103;42.776;23.112;2023-05-21T03:40:07;20.98;;;12.45;;
52104;SDS011;38103;42.776;23.112;2023-05-21T03:42:33;19.70;;;11.90;;
52104;SDS011;38103;42.776;23.112;2023-05-21T03:44:59;19.40;;;12.35;;
52104;SDS011;38103;42.776;23.112;2023-05-21T03:47:24;21.92;;;12.63;;
52104;SDS011;38103;42.776;23.112;2023-05-21T03:49:49;21.73;;;12.32;;
52104;SDS011;38103;42.776;23.112;2023-05-21T03:52:15;20.67;;;12.13;;
52104;SDS011;38103;42.776;23.112;2023-05-21T03:54:40;23.27;;;12.00;;
52104;SDS011;38103;42.776;23.112;2023-05-21T03:57:06;19.42;;;12.02;;
52104;SDS011;38103;42.776;23.112;2023-05-21T03:59:31;19.38;;;11.00;;
52104;SDS011;38103;42.776;23.112;2023-05-21T04:01:56;21.52;;;11.45;;
52104;SDS011;38103;42.776;23.112;2023-05-21T04:04:22;18.30;;;11.05;;
52104;SDS011;38103;42.776;23.112;2023-05-21T04:06:47;17.77;;;11.00;;
52104;SDS011;38103;42.776;23.112;2023-05-21T04:09:13;20.17;;;11.00;;
52104;SDS011;38103;42.776;23.112;2023-05-21T04:11:39;17.80;;;10.98;;
52104;SDS011;38103;42.776;23.112;2023-05-21T04:14:04;20.65;;;10.55;;
52104;SDS011;38103;42.776;23.112;2023-05-21T04:16:30;19.35;;;11.20;;
52104;SDS011;38103;42.776;23.112;2023-05-21T04:18:58;19.15;;;9.93;;
52104;SDS011;38103;42.776;23.112;2023-05-21T04:21:24;23.35;;;9.32;;
52104;SDS011;38103;42.776;23.112;2023-05-21T04:23:49;17.20;;;9.35;;
52104;SDS011;38103;42.776;23.112;2023-05-21T04:26:14;18.33;;;10.38;;
52104;SDS011;38103;42.776;23.112;2023-05-21T04:28:40;18.92;;;10.15;;
52104;SDS011;38103;42.776;23.112;2023-05-21T04:31:06;17.08;;;9.98;;
52104;SDS011;38103;42.776;23.112;2023-05-21T04:33:32;17.77;;;9.43;;
52104;SDS011;38103;42.776;23.112;2023-05-21T04:35:59;16.23;;;9.43;;
52104;SDS011;38103;42.776;23.112;2023-05-21T04:38:25;17.33;;;9.35;;
52104;SDS011;38103;42.776;23.112;2023-05-21T04:40:51;18.25;;;9.93;;
52104;SDS011;38103;42.776;23.112;2023-05-21T04:43:17;16.73;;;9.55;;
52104;SDS011;38103;42.776;23.112;2023-05-21T04:45:49;16.27;;;10.13;;
52104;SDS011;38103;42.776;23.112;2023-05-21T04:48:15;14.85;;;9.25;;
52104;SDS011;38103;42.776;23.112;2023-05-21T04:50:41;16.60;;;9.80;;
52104;SDS011;38103;42.776;23.112;2023-05-21T04:53:07;16.67;;;9.27;;
52104;SDS011;38103;42.776;23.112;2023-05-21T04:55:32;16.65;;;9.90;;
52104;SDS011;38103;42.776;23.112;2023-05-21T04:58:03;16.83;;;9.10;;
52104;SDS011;38103;42.776;23.112;2023-05-21T05:00:29;20.35;;;9.60;;
52104;SDS011;38103;42.776;23.112;2023-05-21T05:02:54;18.88;;;10.30;;
52104;SDS011;38103;42.776;23.112;2023-05-21T05:05:20;19.27;;;10.30;;
52104;SDS011;38103;42.776;23.112;2023-05-21T05:07:45;21.15;;;10.18;;
52104;SDS011;38103;42.776;23.112;2023-05-21T05:10:10;18.27;;;10.10;;
52104;SDS011;38103;42.776;23.112;2023-05-21T05:12:36;19.38;;;10.25;;
52104;SDS011;38103;42.776;23.112;2023-05-21T05:15:01;19.75;;;9.48;;
52104;SDS011;38103;42.776;23.112;2023-05-21T05:17:26;17.67;;;9.63;;
52104;SDS011;38103;42.776;23.112;2023-05-21T05:19:52;14.50;;;8.77;;
52104;SDS011;38103;42.776;23.112;2023-05-21T05:22:17;15.63;;;9.00;;
52104;SDS011;38103;42.776;23.112;2023-05-21T05:24:42;15.50;;;9.18;;
52104;SDS011;38103;42.776;23.112;2023-05-21T05:27:08;14.77;;;8.82;;
52104;SDS011;38103;42.776;23.112;2023-05-21T05:29:33;18.50;;;9.98;;
52104;SDS011;38103;42.776;23.112;2023-05-21T05:31:58;18.80;;;9.82;;
52104;SDS011;38103;42.776;23.112;2023-05-21T05:34:24;22.52;;;10.77;;
52104;SDS011;38103;42.776;23.112;2023-05-21T05:36:49;20.70;;;10.57;;
52104;SDS011;38103;42.776;23.112;2023-05-21T05:39:15;17.00;;;9.13;;
52104;SDS011;38103;42.776;23.112;2023-05-21T05:41:40;15.57;;;8.43;;
52104;SDS011;38103;42.776;23.112;2023-05-21T05:44:05;17.45;;;7.80;;
52104;SDS011;38103;42.776;23.112;2023-05-21T05:46:31;17.63;;;8.93;;
52104;SDS011;38103;42.776;23.112;2023-05-21T05:48:56;17.88;;;8.65;;
52104;SDS011;38103;42.776;23.112;2023-05-21T05:51:22;16.73;;;9.30;;
52104;SDS011;38103;42.776;23.112;2023-05-21T05:53:47;15.30;;;7.93;;
52104;SDS011;38103;42.776;23.112;2023-05-21T05:56:12;15.52;;;7.88;;
52104;SDS011;38103;42.776;23.112;2023-05-21T05:58:38;16.77;;;7.63;;
52104;SDS011;38103;42.776;23.112;2023-05-21T06:01:03;17.33;;;7.95;;
52104;SDS011;38103;42.776;23.112;2023-05-21T06:03:29;17.13;;;7.38;;
52104;SDS011;38103;42.776;23.112;2023-05-21T06:05:54;16.17;;;8.13;;
52104;SDS011;38103;42.776;23.112;2023-05-21T06:08:19;13.82;;;7.47;;
52104;SDS011;38103;42.776;23.112;2023-05-21T06:10:45;16.75;;;8.88;;
52104;SDS011;38103;42.776;23.112;2023-05-21T06:13:10;15.48;;;7.63;;
52104;SDS011;38103;42.776;23.112;2023-05-21T06:15:36;15.43;;;7.78;;
52104;SDS011;38103;42.776;23.112;2023-05-21T06:18:03;19.55;;;8.00;;
52104;SDS011;38103;42.776;23.112;2023-05-21T06:20:28;16.40;;;7.63;;
52104;SDS011;38103;42.776;23.112;2023-05-21T06:22:54;14.18;;;7.47;;
52104;SDS011;38103;42.776;23.112;2023-05-21T06:25:19;16.65;;;8.00;;
52104;SDS011;38103;42.776;23.112;2023-05-21T06:27:45;14.13;;;6.80;;
52104;SDS011;38103;42.776;23.112;2023-05-21T06:30:10;16.23;;;7.53;;
52104;SDS011;38103;42.776;23.112;2023-05-21T06:32:35;15.35;;;6.95;;
52104;SDS011;38103;42.776;23.112;2023-05-21T06:35:01;14.77;;;6.85;;
52104;SDS011;38103;42.776;23.112;2023-05-21T06:37:28;16.70;;;6.78;;
52104;SDS011;38103;42.776;23.112;2023-05-21T06:39:53;14.52;;;6.43;;
52104;SDS011;38103;42.776;23.112;2023-05-21T06:42:18;18.13;;;6.68;;
52104;SDS011;38103;42.776;23.112;2023-05-21T06:44:44;21.33;;;6.75;;
52104;SDS011;38103;42.776;23.112;2023-05-21T06:47:09;15.88;;;7.07;;
52104;SDS011;38103;42.776;23.112;2023-05-21T06:49:34;15.48;;;6.63;;
52104;SDS011;38103;42.776;23.112;2023-05-21T06:52:00;14.20;;;6.82;;
52104;SDS011;38103;42.776;23.112;2023-05-21T06:54:25;17.08;;;7.15;;
52104;SDS011;38103;42.776;23.112;2023-05-21T06:56:50;16.42;;;6.80;;
52104;SDS011;38103;42.776;23.112;2023-05-21T06:59:16;20.42;;;6.35;;
52104;SDS011;38103;42.776;23.112;2023-05-21T07:01:41;16.70;;;6.38;;
52104;SDS011;38103;42.776;23.112;2023-05-21T07:04:07;14.85;;;6.00;;
52104;SDS011;38103;42.776;23.112;2023-05-21T07:06:33;12.77;;;6.40;;
52104;SDS011;38103;42.776;23.112;2023-05-21T07:08:59;14.98;;;6.10;;
52104;SDS011;38103;42.776;23.112;2023-05-21T07:11:24;12.10;;;6.32;;
52104;SDS011;38103;42.776;23.112;2023-05-21T07:13:52;14.02;;;5.70;;
52104;SDS011;38103;42.776;23.112;2023-05-21T07:16:19;14.82;;;5.82;;
52104;SDS011;38103;42.776;23.112;2023-05-21T07:18:44;17.42;;;6.15;;
52104;SDS011;38103;42.776;23.112;2023-05-21T07:21:09;14.63;;;5.80;;
52104;SDS011;38103;42.776;23.112;2023-05-21T07:23:35;13.32;;;5.70;;
52104;SDS011;38103;42.776;23.112;2023-05-21T07:26:00;15.85;;;6.32;;
52104;SDS011;38103;42.776;23.112;2023-05-21T07:28:26;17.45;;;6.00;;
52104;SDS011;38103;42.776;23.112;2023-05-21T07:30:51;17.10;;;5.90;;
52104;SDS011;38103;42.776;23.112;2023-05-21T07:33:16;14.55;;;6.07;;
52104;SDS011;38103;42.776;23.112;2023-05-21T07:35:44;15.35;;;5.68;;
52104;SDS011;38103;42.776;23.112;2023-05-21T07:38:09;21.33;;;6.05;;
52104;SDS011;38103;42.776;23.112;2023-05-21T07:40:35;12.10;;;5.78;;
52104;SDS011;38103;42.776;23.112;2023-05-21T07:43:00;14.63;;;5.57;;
52104;SDS011;38103;42.776;23.112;2023-05-21T07:45:26;14.63;;;5.68;;
52104;SDS011;38103;42.776;23.112;2023-05-21T07:47:51;16.88;;;5.63;;
52104;SDS011;38103;42.776;23.112;2023-05-21T07:50:16;15.18;;;5.57;;
52104;SDS011;38103;42.776;23.112;2023-05-21T07:52:42;17.27;;;6.22;;
52104;SDS011;38103;42.776;23.112;2023-05-21T07:55:08;14.82;;;5.72;;
52104;SDS011;38103;42.776;23.112;2023-05-21T07:57:34;14.60;;;6.05;;
52104;SDS011;38103;42.776;23.112;2023-05-21T07:59:59;17.00;;;5.88;;
52104;SDS011;38103;42.776;23.112;2023-05-21T08:02:25;16.55;;;5.97;;
52104;SDS011;38103;42.776;23.112;2023-05-21T08:04:50;18.05;;;6.20;;
52104;SDS011;38103;42.776;23.112;2023-05-21T08:07:16;15.57;;;6.60;;
52104;SDS011;38103;42.776;23.112;2023-05-21T08:09:43;17.40;;;6.13;;
52104;SDS011;38103;42.776;23.112;2023-05-21T08:12:09;13.48;;;5.63;;
52104;SDS011;38103;42.776;23.112;2023-05-21T08:14:38;18.05;;;5.90;;
52104;SDS011;38103;42.776;23.112;2023-05-21T08:17:03;11.88;;;5.47;;
52104;SDS011;38103;42.776;23.112;2023-05-21T08:19:29;14.07;;;5.60;;
52104;SDS011;38103;42.776;23.112;2023-05-21T08:21:55;24.08;;;5.30;;
52104;SDS011;38103;42.776;23.112;2023-05-21T08:24:20;16.48;;;5.53;;
52104;SDS011;38103;42.776;23.112;2023-05-21T08:26:45;20.98;;;5.75;;
52104;SDS011;38103;42.776;23.112;2023-05-21T08:29:13;16.17;;;5.15;;
52104;SDS011;38103;42.776;23.112;2023-05-21T08:31:38;14.75;;;5.20;;
52104;SDS011;38103;42.776;23.112;2023-05-21T08:34:04;15.52;;;5.78;;
52104;SDS011;38103;42.776;23.112;2023-05-21T08:36:30;14.38;;;4.75;;
52104;SDS011;38103;42.776;23.112;2023-05-21T08:38:55;15.82;;;5.13;;
52104;SDS011;38103;42.776;23.112;2023-05-21T08:41:20;13.77;;;5.70;;
52104;SDS011;38103;42.776;23.112;2023-05-21T08:43:47;21.00;;;5.07;;
52104;SDS011;38103;42.776;23.112;2023-05-21T08:46:16;14.57;;;5.20;;
52104;SDS011;38103;42.776;23.112;2023-05-21T08:48:45;13.60;;;4.78;;
52104;SDS011;38103;42.776;23.112;2023-05-21T08:51:11;13.25;;;5.18;;
52104;SDS011;38103;42.776;23.112;2023-05-21T08:53:37;18.02;;;5.07;;
52104;SDS011;38103;42.776;23.112;2023-05-21T08:56:03;15.43;;;5.10;;
52104;SDS011;38103;42.776;23.112;2023-05-21T08:58:31;15.18;;;5.20;;
52104;SDS011;38103;42.776;23.112;2023-05-21T09:00:57;14.43;;;4.93;;
52104;SDS011;38103;42.776;23.112;2023-05-21T09:03:23;13.52;;;4.95;;
52104;SDS011;38103;42.776;23.112;2023-05-21T09:05:49;15.43;;;5.38;;
52104;SDS011;38103;42.776;23.112;2023-05-21T09:08:20;12.93;;;5.00;;
52104;SDS011;38103;42.776;23.112;2023-05-21T09:10:51;14.13;;;5.20;;
52104;SDS011;38103;42.776;23.112;2023-05-21T09:13:17;15.10;;;5.57;;
52104;SDS011;38103;42.776;23.112;2023-05-21T09:15:44;13.07;;;5.15;;
52104;SDS011;38103;42.776;23.112;2023-05-21T09:18:11;12.60;;;4.60;;
52104;SDS011;38103;42.776;23.112;2023-05-21T09:20:37;14.77;;;5.70;;
52104;SDS011;38103;42.776;23.112;2023-05-21T09:23:03;15.50;;;5.15;;
52104;SDS011;38103;42.776;23.112;2023-05-21T09:25:30;25.05;;;5.55;;
52104;SDS011;38103;42.776;23.112;2023-05-21T09:27:55;15.80;;;5.05;;
52104;SDS011;38103;42.776;23.112;2023-05-21T09:30:21;14.82;;;5.45;;
52104;SDS011;38103;42.776;23.112;2023-05-21T09:32:51;18.30;;;5.60;;
52104;SDS011;38103;42.776;23.112;2023-05-21T09:35:18;13.52;;;5.60;;
52104;SDS011;38103;42.776;23.112;2023-05-21T09:37:46;16.95;;;5.13;;
52104;SDS011;38103;42.776;23.112;2023-05-21T09:40:14;15.18;;;5.13;;
52104;SDS011;38103;42.776;23.112;2023-05-21T09:42:43;13.95;;;5.32;;
52104;SDS011;38103;42.776;23.112;2023-05-21T09:45:10;15.70;;;4.90;;
52104;SDS011;38103;42.776;23.112;2023-05-21T09:47:42;13.10;;;5.28;;
52104;SDS011;38103;42.776;23.112;2023-05-21T09:50:09;13.05;;;5.10;;
52104;SDS011;38103;42.776;23.112;2023-05-21T09:52:36;15.50;;;5.20;;
52104;SDS011;38103;42.776;23.112;2023-05-21T09:55:02;12.43;;;5.25;;
52104;SDS011;38103;42.776;23.112;2023-05-21T09:57:31;15.68;;;5.03;;
52104;SDS011;38103;42.776;23.112;2023-05-21T09:59:56;14.02;;;5.32;;
52104;SDS011;38103;42.776;23.112;2023-05-21T10:02:22;15.38;;;5.10;;
52104;SDS011;38103;42.776;23.112;2023-05-21T10:04:50;18.85;;;5.43;;
52104;SDS011;38103;42.776;23.112;2023-05-21T10:07:18;13.30;;;5.47;;
52104;SDS011;38103;42.776;23.112;2023-05-21T10:09:49;15.02;;;4.75;;
52104;SDS011;38103;42.776;23.112;2023-05-21T10:12:17;14.82;;;4.55;;
52104;SDS011;38103;42.776;23.112;2023-05-21T10:14:45;20.48;;;4.85;;
52104;SDS011;38103;42.776;23.112;2023-05-21T10:17:16;13.88;;;5.32;;
52104;SDS011;38103;42.776;23.112;2023-05-21T10:19:42;14.20;;;5.30;;
52104;SDS011;38103;42.776;23.112;2023-05-21T10:22:10;13.48;;;5.63;;
52104;SDS011;38103;42.776;23.112;2023-05-21T10:24:36;12.90;;;4.90;;
52104;SDS011;38103;42.776;23.112;2023-05-21T10:27:04;14.90;;;5.40;;
52104;SDS011;38103;42.776;23.112;2023-05-21T10:29:31;17.48;;;5.78;;
52104;SDS011;38103;42.776;23.112;2023-05-21T10:31:58;15.63;;;5.47;;
52104;SDS011;38103;42.776;23.112;2023-05-21T10:34:25;18.00;;;5.20;;
52104;SDS011;38103;42.776;23.112;2023-05-21T10:36:52;14.38;;;5.22;;
52104;SDS011;38103;42.776;23.112;2023-05-21T10:39:19;14.60;;;5.55;;
52104;SDS011;38103;42.776;23.112;2023-05-21T10:41:55;14.43;;;5.40;;
52104;SDS011;38103;42.776;23.112;2023-05-21T10:45:11;16.67;;;4.93;;
52104;SDS011;38103;42.776;23.112;2023-05-21T10:47:16;15.93;;;5.60;;
52104;SDS011;38103;42.776;23.112;2023-05-21T11:01:21;15.25;;;4.90;;
52104;SDS011;38103;42.776;23.112;2023-05-21T11:03:47;12.73;;;5.20;;
52104;SDS011;38103;42.776;23.112;2023-05-21T11:06:23;15.15;;;5.28;;
52104;SDS011;38103;42.776;23.112;2023-05-21T11:08:51;12.02;;;4.97;;
52104;SDS011;38103;42.776;23.112;2023-05-21T11:11:38;14.95;;;5.25;;
52104;SDS011;38103;42.776;23.112;2023-05-21T11:14:26;12.45;;;4.70;;
52104;SDS011;38103;42.776;23.112;2023-05-21T11:16:52;16.15;;;5.38;;
52104;SDS011;38103;42.776;23.112;2023-05-21T11:19:18;21.15;;;5.63;;
52104;SDS011;38103;42.776;23.112;2023-05-21T11:21:48;16.05;;;5.78;;
52104;SDS011;38103;42.776;23.112;2023-05-21T11:24:18;13.80;;;5.10;;
52104;SDS011;38103;42.776;23.112;2023-05-21T11:29:13;15.18;;;5.13;;
52104;SDS011;38103;42.776;23.112;2023-05-21T11:31:43;20.27;;;5.38;;
52104;SDS011;38103;42.776;23.112;2023-05-21T11:34:11;13.05;;;5.45;;
52104;SDS011;38103;42.776;23.112;2023-05-21T11:36:46;14.50;;;5.10;;
52104;SDS011;38103;42.776;23.112;2023-05-21T11:39:13;14.00;;;5.38;;
52104;SDS011;38103;42.776;23.112;2023-05-21T11:44:37;13.75;;;5.28;;
52104;SDS011;38103;42.776;23.112;2023-05-21T11:47:06;13.95;;;5.00;;
52104;SDS011;38103;42.776;23.112;2023-05-21T11:49:33;10.90;;;4.63;;
52104;SDS011;38103;42.776;23.112;2023-05-21T11:51:59;16.02;;;4.85;;
52104;SDS011;38103;42.776;23.112;2023-05-21T11:54:25;18.35;;;5.53;;
52104;SDS011;38103;42.776;23.112;2023-05-21T11:56:53;12.18;;;4.78;;
52104;SDS011;38103;42.776;23.112;2023-05-21T11:59:18;14.60;;;5.88;;
52104;SDS011;38103;42.776;23.112;2023-05-21T12:01:44;17.83;;;4.65;;
52104;SDS011;38103;42.776;23.112;2023-05-21T12:04:09;15.27;;;4.82;;
52104;SDS011;38103;42.776;23.112;2023-05-21T12:06:36;13.27;;;4.75;;
52104;SDS011;38103;42.776;23.112;2023-05-21T12:09:02;10.93;;;4.60;;
52104;SDS011;38103;42.776;23.112;2023-05-21T12:11:28;16.08;;;5.10;;
52104;SDS011;38103;42.776;23.112;2023-05-21T12:13:54;12.50;;;4.68;;
52104;SDS011;38103;42.776;23.112;2023-05-21T12:16:21;15.18;;;4.93;;
52104;SDS011;38103;42.776;23.112;2023-05-21T12:18:46;11.27;;;4.72;;
52104;SDS011;38103;42.776;23.112;2023-05-21T12:21:12;14.23;;;4.63;;
52104;SDS011;38103;42.776;23.112;2023-05-21T12:23:37;12.93;;;4.95;;
52104;SDS011;38103;42.776;23.112;2023-05-21T12:26:02;13.73;;;4.40;;
52104;SDS011;38103;42.776;23.112;2023-05-21T12:28:28;14.35;;;4.88;;
52104;SDS011;38103;42.776;23.112;2023-05-21T12:30:54;11.32;;;5.07;;
52104;SDS011;38103;42.776;23.112;2023-05-21T12:33:20;11.88;;;5.13;;
52104;SDS011;38103;42.776;23.112;2023-05-21T12:35:46;15.50;;;5.55;;
52104;SDS011;38103;42.776;23.112;2023-05-21T12:38:13;13.25;;;5.30;;
52104;SDS011;38103;42.776;23.112;2023-05-21T12:40:39;12.77;;;5.00;;
52104;SDS011;38103;42.776;23.112;2023-05-21T12:43:05;12.88;;;4.70;;
52104;SDS011;38103;42.776;23.112;2023-05-21T12:45:31;11.63;;;4.72;;
52104;SDS011;38103;42.776;23.112;2023-05-21T12:48:00;12.98;;;5.30;;
52104;SDS011;38103;42.776;23.112;2023-05-21T12:50:26;14.52;;;5.38;;
52104;SDS011;38103;42.776;23.112;2023-05-21T12:52:52;13.48;;;4.93;;
52104;SDS011;38103;42.776;23.112;2023-05-21T12:55:20;13.57;;;5.55;;
52104;SDS011;38103;42.776;23.112;2023-05-21T12:57:47;16.70;;;5.25;;
52104;SDS011;38103;42.776;23.112;2023-05-21T13:00:12;15.70;;;5.53;;
52104;SDS011;38103;42.776;23.112;2023-05-21T13:02:41;12.55;;;4.75;;
52104;SDS011;38103;42.776;23.112;2023-05-21T13:05:08;15.60;;;5.97;;
52104;SDS011;38103;42.776;23.112;2023-05-21T13:07:35;19.20;;;5.28;;
52104;SDS011;38103;42.776;23.112;2023-05-21T13:10:03;11.90;;;5.22;;
52104;SDS011;38103;42.776;23.112;2023-05-21T13:12:30;12.60;;;5.30;;
52104;SDS011;38103;42.776;23.112;2023-05-21T13:14:57;16.92;;;5.55;;
52104;SDS011;38103;42.776;23.112;2023-05-21T13:17:24;17.00;;;5.55;;
52104;SDS011;38103;42.776;23.112;2023-05-21T13:20:07;17.80;;;5.40;;
52104;SDS011;38103;42.776;23.112;2023-05-21T13:22:33;15.25;;;5.40;;
52104;SDS011;38103;42.776;23.112;2023-05-21T13:25:01;18.15;;;5.43;;
52104;SDS011;38103;42.776;23.112;2023-05-21T13:27:26;14.95;;;5.10;;
52104;SDS011;38103;42.776;23.112;2023-05-21T13:29:52;15.35;;;4.80;;
52104;SDS011;38103;42.776;23.112;2023-05-21T13:32:18;13.70;;;5.25;;
52104;SDS011;38103;42.776;23.112;2023-05-21T13:34:43;11.38;;;4.90;;
52104;SDS011;38103;42.776;23.112;2023-05-21T13:37:08;15.35;;;5.22;;
52104;SDS011;38103;42.776;23.112;2023-05-21T13:39:34;18.30;;;4.90;;
52104;SDS011;38103;42.776;23.112;2023-05-21T13:41:59;16.45;;;5.25;;
52104;SDS011;38103;42.776;23.112;2023-05-21T13:44:25;12.45;;;5.15;;
52104;SDS011;38103;42.776;23.112;2023-05-21T13:46:51;13.88;;;5.03;;
52104;SDS011;38103;42.776;23.112;2023-05-21T13:49:16;14.90;;;5.47;;
52104;SDS011;38103;42.776;23.112;2023-05-21T13:51:41;14.32;;;5.22;;
52104;SDS011;38103;42.776;23.112;2023-05-21T13:54:07;11.77;;;5.15;;
52104;SDS011;38103;42.776;23.112;2023-05-21T13:56:32;13.60;;;5.18;;
52104;SDS011;38103;42.776;23.112;2023-05-21T13:58:58;12.07;;;5.22;;
52104;SDS011;38103;42.776;23.112;2023-05-21T14:01:24;13.50;;;5.80;;
52104;SDS011;38103;42.776;23.112;2023-05-21T14:03:49;15.05;;;5.20;;
52104;SDS011;38103;42.776;23.112;2023-05-21T14:06:15;19.25;;;5.40;;
52104;SDS011;38103;42.776;23.112;2023-05-21T14:08:40;14.77;;;5.57;;
52104;SDS011;38103;42.776;23.112;2023-05-21T14:11:07;12.52;;;5.18;;
52104;SDS011;38103;42.776;23.112;2023-05-21T14:13:32;16.05;;;5.38;;
52104;SDS011;38103;42.776;23.112;2023-05-21T14:15:57;11.75;;;4.80;;
52104;SDS011;38103;42.776;23.112;2023-05-21T14:18:23;12.77;;;5.68;;
52104;SDS011;38103;42.776;23.112;2023-05-21T14:20:48;10.63;;;4.70;;
52104;SDS011;38103;42.776;23.112;2023-05-21T14:23:14;14.48;;;4.82;;
52104;SDS011;38103;42.776;23.112;2023-05-21T14:25:40;12.88;;;5.65;;
52104;SDS011;38103;42.776;23.112;2023-05-21T14:28:05;14.13;;;5.80;;
52104;SDS011;38103;42.776;23.112;2023-05-21T14:30:31;14.13;;;5.25;;
52104;SDS011;38103;42.776;23.112;2023-05-21T14:32:56;13.55;;;5.40;;
52104;SDS011;38103;42.776;23.112;2023-05-21T14:35:22;14.70;;;5.45;;
52104;SDS011;38103;42.776;23.112;2023-05-21T14:37:47;22.15;;;9.65;;